sensor_id;sensor_type;location;lat;lon;timestamp;temperature;humidity
47576;DHT22;33304;52.456;13.328;2024-01-11T00:00:46;-3.60;23.20
47576;DHT22;33304;52.456;13.328;2024-01-11T00:03:13;-3.60;23.50
47576;DHT22;33304;52.456;13.328;2024-01-11T00:05:41;-3.80;24.50
47576;DHT22;33304;52.456;13.328;2024-01-11T00:08:08;-3.60;24.70
47576;DHT22;33304;52.456;13.328;2024-01-11T00:10:37;-3.60;24.80
47576;DHT22;33304;52.456;13.328;2024-01-11T00:13:04;-3.80;24.70
47576;DHT22;33304;52.456;13.328;2024-01-11T00:15:31;-3.80;25.90
47576;DHT22;33304;52.456;13.328;2024-01-11T00:17:58;-3.80;25.00
47576;DHT22;33304;52.456;13.328;2024-01-11T00:20:26;-3.90;25.40
47576;DHT22;33304;52.456;13.328;2024-01-11T00:22:54;-3.90;25.20
47576;DHT22;33304;52.456;13.328;2024-01-11T00:25:21;-3.90;25.70
47576;DHT22;33304;52.456;13.328;2024-01-11T00:27:49;-4.00;25.90
47576;DHT22;33304;52.456;13.328;2024-01-11T00:30:16;-4.00;26.80
47576;DHT22;33304;52.456;13.328;2024-01-11T00:32:43;-4.00;26.80
47576;DHT22;33304;52.456;13.328;2024-01-11T00:35:10;-4.00;26.90
47576;DHT22;33304;52.456;13.328;2024-01-11T00:37:37;-4.10;28.00
47576;DHT22;33304;52.456;13.328;2024-01-11T00:40:07;-4.20;27.30
47576;DHT22;33304;52.456;13.328;2024-01-11T00:42:34;-4.20;28.30
47576;DHT22;33304;52.456;13.328;2024-01-11T00:45:01;-4.20;29.50
47576;DHT22;33304;52.456;13.328;2024-01-11T00:47:28;-4.20;30.30
47576;DHT22;33304;52.456;13.328;2024-01-11T00:49:55;-4.20;32.10
47576;DHT22;33304;52.456;13.328;2024-01-11T00:52:23;-4.40;32.30
47576;DHT22;33304;52.456;13.328;2024-01-11T00:54:50;-4.20;35.90
47576;DHT22;33304;52.456;13.328;2024-01-11T00:57:18;-4.30;35.40
47576;DHT22;33304;52.456;13.328;2024-01-11T00:59:45;-4.30;36.60
47576;DHT22;33304;52.456;13.328;2024-01-11T01:02:12;-4.40;37.60
47576;DHT22;33304;52.456;13.328;2024-01-11T01:04:39;-4.60;39.70
47576;DHT22;33304;52.456;13.328;2024-01-11T01:07:07;-4.60;41.20
47576;DHT22;33304;52.456;13.328;2024-01-11T01:09:34;-4.60;43.00
47576;DHT22;33304;52.456;13.328;2024-01-11T01:12:01;-4.60;41.60
47576;DHT22;33304;52.456;13.328;2024-01-11T01:14:29;-4.70;45.70
47576;DHT22;33304;52.456;13.328;2024-01-11T01:16:56;-4.90;47.60
47576;DHT22;33304;52.456;13.328;2024-01-11T01:19:23;-4.80;52.30
47576;DHT22;33304;52.456;13.328;2024-01-11T01:21:50;-5.00;53.50
47576;DHT22;33304;52.456;13.328;2024-01-11T01:24:18;-5.20;58.60
47576;DHT22;33304;52.456;13.328;2024-01-11T01:26:45;-5.30;63.70
47576;DHT22;33304;52.456;13.328;2024-01-11T01:29:12;-5.40;66.70
47576;DHT22;33304;52.456;13.328;2024-01-11T01:31:40;-5.70;73.70
47576;DHT22;33304;52.456;13.328;2024-01-11T01:34:07;-5.90;90.20
47576;DHT22;33304;52.456;13.328;2024-01-11T01:36:34;-5.80;96.50
47576;DHT22;33304;52.456;13.328;2024-01-11T01:39:01;-5.70;99.90
47576;DHT22;33304;52.456;13.328;2024-01-11T01:41:29;-5.70;99.70
47576;DHT22;33304;52.456;13.328;2024-01-11T01:43:56;-5.60;99.70
47576;DHT22;33304;52.456;13.328;2024-01-11T01:46:25;-5.60;98.90
47576;DHT22;33304;52.456;13.328;2024-01-11T01:48:56;-5.60;99.40
47576;DHT22;33304;52.456;13.328;2024-01-11T01:51:26;-5.60;99.40
47576;DHT22;33304;52.456;13.328;2024-01-11T01:53:56;-5.60;99.50
47576;DHT22;33304;52.456;13.328;2024-01-11T01:56:24;-5.80;99.30
47576;DHT22;33304;52.456;13.328;2024-01-11T01:58:52;-5.70;99.90
47576;DHT22;33304;52.456;13.328;2024-01-11T02:01:20;-5.60;99.90
47576;DHT22;33304;52.456;13.328;2024-01-11T02:03:50;-5.50;99.90
47576;DHT22;33304;52.456;13.328;2024-01-11T02:06:18;-5.50;99.90
47576;DHT22;33304;52.456;13.328;2024-01-11T02:08:46;-5.30;99.50
47576;DHT22;33304;52.456;13.328;2024-01-11T02:11:15;-5.30;96.00
47576;DHT22;33304;52.456;13.328;2024-01-11T02:13:42;-5.30;95.90
47576;DHT22;33304;52.456;13.328;2024-01-11T02:16:11;-5.40;93.70
47576;DHT22;33304;52.456;13.328;2024-01-11T02:18:38;-5.40;94.60
47576;DHT22;33304;52.456;13.328;2024-01-11T02:21:08;-5.40;96.00
47576;DHT22;33304;52.456;13.328;2024-01-11T02:23:42;-5.20;97.10
47576;DHT22;33304;52.456;13.328;2024-01-11T02:26:13;-5.20;96.80
47576;DHT22;33304;52.456;13.328;2024-01-11T02:28:43;-5.10;96.90
47576;DHT22;33304;52.456;13.328;2024-01-11T02:31:11;-5.00;96.50
47576;DHT22;33304;52.456;13.328;2024-01-11T02:33:39;-5.00;96.00
47576;DHT22;33304;52.456;13.328;2024-01-11T02:36:07;-5.00;95.90
47576;DHT22;33304;52.456;13.328;2024-01-11T02:38:34;-5.00;96.00
47576;DHT22;33304;52.456;13.328;2024-01-11T02:41:02;-5.00;96.80
47576;DHT22;33304;52.456;13.328;2024-01-11T02:43:31;-4.90;97.70
47576;DHT22;33304;52.456;13.328;2024-01-11T02:45:58;-4.90;97.60
47576;DHT22;33304;52.456;13.328;2024-01-11T02:48:28;-4.90;97.20
47576;DHT22;33304;52.456;13.328;2024-01-11T02:50:55;-4.80;97.90
47576;DHT22;33304;52.456;13.328;2024-01-11T02:53:23;-4.80;96.50
47576;DHT22;33304;52.456;13.328;2024-01-11T02:55:50;-4.80;96.10
47576;DHT22;33304;52.456;13.328;2024-01-11T02:58:17;-4.80;94.30
47576;DHT22;33304;52.456;13.328;2024-01-11T03:00:46;-5.00;92.90
47576;DHT22;33304;52.456;13.328;2024-01-11T03:03:13;-5.20;95.00
47576;DHT22;33304;52.456;13.328;2024-01-11T03:05:40;-5.20;96.70
47576;DHT22;33304;52.456;13.328;2024-01-11T03:08:07;-5.40;97.30
47576;DHT22;33304;52.456;13.328;2024-01-11T03:10:37;-5.20;99.90
47576;DHT22;33304;52.456;13.328;2024-01-11T03:13:05;-5.20;99.90
47576;DHT22;33304;52.456;13.328;2024-01-11T03:15:32;-5.20;99.90
47576;DHT22;33304;52.456;13.328;2024-01-11T03:18:00;-5.20;99.90
47576;DHT22;33304;52.456;13.328;2024-01-11T03:20:27;-5.20;99.90
47576;DHT22;33304;52.456;13.328;2024-01-11T03:22:55;-5.30;99.20
47576;DHT22;33304;52.456;13.328;2024-01-11T03:25:22;-5.30;99.20
47576;DHT22;33304;52.456;13.328;2024-01-11T03:27:49;-5.40;97.80
47576;DHT22;33304;52.456;13.328;2024-01-11T03:30:16;-5.40;97.90
47576;DHT22;33304;52.456;13.328;2024-01-11T03:32:43;-5.40;98.30
47576;DHT22;33304;52.456;13.328;2024-01-11T03:35:12;-5.60;98.20
47576;DHT22;33304;52.456;13.328;2024-01-11T03:37:39;-5.70;99.90
47576;DHT22;33304;52.456;13.328;2024-01-11T03:40:07;-5.60;99.90
47576;DHT22;33304;52.456;13.328;2024-01-11T03:42:34;-5.50;99.90
47576;DHT22;33304;52.456;13.328;2024-01-11T03:45:01;-5.60;99.90
47576;DHT22;33304;52.456;13.328;2024-01-11T03:47:29;-5.80;99.90
47576;DHT22;33304;52.456;13.328;2024-01-11T03:49:56;-5.70;99.90
47576;DHT22;33304;52.456;13.328;2024-01-11T03:52:24;-5.60;99.90
47576;DHT22;33304;52.456;13.328;2024-01-11T03:54:52;-5.60;99.90
47576;DHT22;33304;52.456;13.328;2024-01-11T03:57:19;-5.40;99.90
47576;DHT22;33304;52.456;13.328;2024-01-11T03:59:46;-5.30;99.90
47576;DHT22;33304;52.456;13.328;2024-01-11T04:02:13;-5.40;99.90
47576;DHT22;33304;52.456;13.328;2024-01-11T04:04:40;-5.30;99.90
47576;DHT22;33304;52.456;13.328;2024-01-11T04:07:08;-5.10;99.90
47576;DHT22;33304;52.456;13.328;2024-01-11T04:09:38;-5.00;99.90
47576;DHT22;33304;52.456;13.328;2024-01-11T04:12:06;-5.10;99.90
47576;DHT22;33304;52.456;13.328;2024-01-11T04:14:33;-5.10;99.90
47576;DHT22;33304;52.456;13.328;2024-01-11T04:17:00;-5.10;99.90
47576;DHT22;33304;52.456;13.328;2024-01-11T04:19:27;-5.20;99.90
47576;DHT22;33304;52.456;13.328;2024-01-11T04:21:54;-5.00;99.90
47576;DHT22;33304;52.456;13.328;2024-01-11T04:24:21;-5.00;99.90
47576;DHT22;33304;52.456;13.328;2024-01-11T04:26:49;-5.00;99.90
47576;DHT22;33304;52.456;13.328;2024-01-11T04:29:16;-5.00;99.90
47576;DHT22;33304;52.456;13.328;2024-01-11T04:31:43;-4.90;99.90
47576;DHT22;33304;52.456;13.328;2024-01-11T04:34:10;-5.00;99.90
47576;DHT22;33304;52.456;13.328;2024-01-11T04:36:37;-4.90;99.90
47576;DHT22;33304;52.456;13.328;2024-01-11T04:39:04;-4.90;99.90
47576;DHT22;33304;52.456;13.328;2024-01-11T04:41:34;-4.80;99.90
47576;DHT22;33304;52.456;13.328;2024-01-11T04:44:03;-4.70;99.90
47576;DHT22;33304;52.456;13.328;2024-01-11T04:46:31;-4.70;99.90
47576;DHT22;33304;52.456;13.328;2024-01-11T04:48:58;-4.60;99.90
47576;DHT22;33304;52.456;13.328;2024-01-11T04:51:25;-4.70;99.90
47576;DHT22;33304;52.456;13.328;2024-01-11T04:53:52;-4.60;99.90
47576;DHT22;33304;52.456;13.328;2024-01-11T04:56:19;-4.60;99.90
47576;DHT22;33304;52.456;13.328;2024-01-11T04:58:47;-4.50;99.90
47576;DHT22;33304;52.456;13.328;2024-01-11T05:01:16;-4.60;99.90
47576;DHT22;33304;52.456;13.328;2024-01-11T05:03:45;-4.60;99.90
47576;DHT22;33304;52.456;13.328;2024-01-11T05:06:15;-4.70;99.90
47576;DHT22;33304;52.456;13.328;2024-01-11T05:08:43;-4.50;99.90
47576;DHT22;33304;52.456;13.328;2024-01-11T05:11:15;-4.40;99.90
47576;DHT22;33304;52.456;13.328;2024-01-11T05:13:42;-4.50;99.90
47576;DHT22;33304;52.456;13.328;2024-01-11T05:16:21;-4.60;99.90
47576;DHT22;33304;52.456;13.328;2024-01-11T05:18:49;-4.40;99.90
47576;DHT22;33304;52.456;13.328;2024-01-11T05:21:16;-4.50;99.90
47576;DHT22;33304;52.456;13.328;2024-01-11T05:23:43;-4.30;99.90
47576;DHT22;33304;52.456;13.328;2024-01-11T05:26:12;-4.30;99.90
47576;DHT22;33304;52.456;13.328;2024-01-11T05:28:39;-4.40;99.90
47576;DHT22;33304;52.456;13.328;2024-01-11T05:31:07;-4.20;99.90
47576;DHT22;33304;52.456;13.328;2024-01-11T05:33:35;-4.20;99.90
47576;DHT22;33304;52.456;13.328;2024-01-11T05:36:03;-4.20;99.90
47576;DHT22;33304;52.456;13.328;2024-01-11T05:38:30;-4.30;99.90
47576;DHT22;33304;52.456;13.328;2024-01-11T05:40:57;-4.10;99.90
47576;DHT22;33304;52.456;13.328;2024-01-11T05:43:24;-3.80;99.90
47576;DHT22;33304;52.456;13.328;2024-01-11T05:45:52;-3.90;99.90
47576;DHT22;33304;52.456;13.328;2024-01-11T05:48:19;-3.70;99.90
47576;DHT22;33304;52.456;13.328;2024-01-11T05:50:47;-3.80;99.90
47576;DHT22;33304;52.456;13.328;2024-01-11T05:53:14;-3.70;99.90
47576;DHT22;33304;52.456;13.328;2024-01-11T05:55:43;-3.80;99.90
47576;DHT22;33304;52.456;13.328;2024-01-11T05:58:10;-3.90;99.90
47576;DHT22;33304;52.456;13.328;2024-01-11T06:00:37;-3.80;99.90
47576;DHT22;33304;52.456;13.328;2024-01-11T06:03:04;-3.80;99.90
47576;DHT22;33304;52.456;13.328;2024-01-11T06:05:31;-4.00;99.90
47576;DHT22;33304;52.456;13.328;2024-01-11T06:07:59;-3.80;99.90
47576;DHT22;33304;52.456;13.328;2024-01-11T06:10:26;-3.60;99.90
47576;DHT22;33304;52.456;13.328;2024-01-11T06:12:53;-3.70;99.90
47576;DHT22;33304;52.456;13.328;2024-01-11T06:15:22;-3.80;99.90
47576;DHT22;33304;52.456;13.328;2024-01-11T06:17:49;-3.70;99.90
47576;DHT22;33304;52.456;13.328;2024-01-11T06:20:16;-3.50;99.90
47576;DHT22;33304;52.456;13.328;2024-01-11T06:22:43;-3.50;99.90
47576;DHT22;33304;52.456;13.328;2024-01-11T06:25:11;-3.60;99.90
47576;DHT22;33304;52.456;13.328;2024-01-11T06:27:38;-3.60;99.90
47576;DHT22;33304;52.456;13.328;2024-01-11T06:30:07;-3.50;99.90
47576;DHT22;33304;52.456;13.328;2024-01-11T06:32:34;-3.40;99.90
47576;DHT22;33304;52.456;13.328;2024-01-11T06:35:01;-3.50;99.90
47576;DHT22;33304;52.456;13.328;2024-01-11T06:37:28;-3.60;99.90
47576;DHT22;33304;52.456;13.328;2024-01-11T06:39:56;-3.50;99.90
47576;DHT22;33304;52.456;13.328;2024-01-11T06:42:24;-3.40;99.90
47576;DHT22;33304;52.456;13.328;2024-01-11T06:44:52;-3.60;99.90
47576;DHT22;33304;52.456;13.328;2024-01-11T06:47:19;-3.60;99.90
47576;DHT22;33304;52.456;13.328;2024-01-11T06:49:46;-3.60;99.90
47576;DHT22;33304;52.456;13.328;2024-01-11T06:52:13;-3.50;99.90
47576;DHT22;33304;52.456;13.328;2024-01-11T06:54:40;-3.60;99.90
47576;DHT22;33304;52.456;13.328;2024-01-11T06:57:07;-3.40;99.90
47576;DHT22;33304;52.456;13.328;2024-01-11T06:59:36;-3.50;99.90
47576;DHT22;33304;52.456;13.328;2024-01-11T07:02:03;-3.30;99.90
47576;DHT22;33304;52.456;13.328;2024-01-11T07:04:30;-3.40;99.90
47576;DHT22;33304;52.456;13.328;2024-01-11T07:06:57;-3.50;99.90
47576;DHT22;33304;52.456;13.328;2024-01-11T07:09:24;-3.30;99.90
47576;DHT22;33304;52.456;13.328;2024-01-11T07:11:52;-3.30;99.90
47576;DHT22;33304;52.456;13.328;2024-01-11T07:14:19;-3.40;99.90
47576;DHT22;33304;52.456;13.328;2024-01-11T07:16:47;-3.50;99.90
47576;DHT22;33304;52.456;13.328;2024-01-11T07:19:15;-3.40;99.90
47576;DHT22;33304;52.456;13.328;2024-01-11T07:21:42;-3.40;99.90
47576;DHT22;33304;52.456;13.328;2024-01-11T07:24:09;-3.40;99.90
47576;DHT22;33304;52.456;13.328;2024-01-11T07:26:36;-3.30;99.90
47576;DHT22;33304;52.456;13.328;2024-01-11T07:29:03;-3.40;99.90
47576;DHT22;33304;52.456;13.328;2024-01-11T07:31:30;-3.40;99.90
47576;DHT22;33304;52.456;13.328;2024-01-11T07:33:59;-3.20;99.90
47576;DHT22;33304;52.456;13.328;2024-01-11T07:36:26;-3.10;99.90
47576;DHT22;33304;52.456;13.328;2024-01-11T07:38:53;-3.20;99.90
47576;DHT22;33304;52.456;13.328;2024-01-11T07:41:21;-3.30;99.90
47576;DHT22;33304;52.456;13.328;2024-01-11T07:43:48;-3.20;99.90
47576;DHT22;33304;52.456;13.328;2024-01-11T07:46:15;-3.00;99.90
47576;DHT22;33304;52.456;13.328;2024-01-11T07:48:42;-2.90;99.90
47576;DHT22;33304;52.456;13.328;2024-01-11T07:51:10;-2.90;99.90
47576;DHT22;33304;52.456;13.328;2024-01-11T07:53:37;-2.80;99.90
47576;DHT22;33304;52.456;13.328;2024-01-11T07:56:06;-2.90;99.90
47576;DHT22;33304;52.456;13.328;2024-01-11T07:58:34;-2.90;99.90
47576;DHT22;33304;52.456;13.328;2024-01-11T08:01:03;-2.80;99.90
47576;DHT22;33304;52.456;13.328;2024-01-11T08:03:30;-2.80;99.90
47576;DHT22;33304;52.456;13.328;2024-01-11T08:05:58;-2.70;99.90
47576;DHT22;33304;52.456;13.328;2024-01-11T08:08:27;-2.70;99.90
47576;DHT22;33304;52.456;13.328;2024-01-11T08:10:54;-2.80;99.90
47576;DHT22;33304;52.456;13.328;2024-01-11T08:13:21;-2.80;99.90
47576;DHT22;33304;52.456;13.328;2024-01-11T08:15:49;-2.70;99.90
47576;DHT22;33304;52.456;13.328;2024-01-11T08:18:18;-2.60;99.90
47576;DHT22;33304;52.456;13.328;2024-01-11T08:20:45;-2.70;99.90
47576;DHT22;33304;52.456;13.328;2024-01-11T08:23:12;-2.50;99.90
47576;DHT22;33304;52.456;13.328;2024-01-11T08:25:41;-2.60;99.90
47576;DHT22;33304;52.456;13.328;2024-01-11T08:28:08;-2.50;99.90
47576;DHT22;33304;52.456;13.328;2024-01-11T08:30:35;-2.50;99.90
47576;DHT22;33304;52.456;13.328;2024-01-11T08:33:02;-2.40;99.90
47576;DHT22;33304;52.456;13.328;2024-01-11T08:35:30;-2.30;99.90
47576;DHT22;33304;52.456;13.328;2024-01-11T08:37:58;-2.40;99.90
47576;DHT22;33304;52.456;13.328;2024-01-11T08:40:25;-2.40;99.90
47576;DHT22;33304;52.456;13.328;2024-01-11T08:42:53;-2.40;99.90
47576;DHT22;33304;52.456;13.328;2024-01-11T08:45:20;-2.10;99.90
47576;DHT22;33304;52.456;13.328;2024-01-11T08:47:48;-2.40;99.90
47576;DHT22;33304;52.456;13.328;2024-01-11T08:50:15;-2.30;99.90
47576;DHT22;33304;52.456;13.328;2024-01-11T08:52:43;-2.30;99.90
47576;DHT22;33304;52.456;13.328;2024-01-11T08:55:10;-2.20;99.90
47576;DHT22;33304;52.456;13.328;2024-01-11T08:57:38;-2.00;99.90
47576;DHT22;33304;52.456;13.328;2024-01-11T09:00:08;-2.10;99.90
47576;DHT22;33304;52.456;13.328;2024-01-11T09:02:35;-2.00;99.90
47576;DHT22;33304;52.456;13.328;2024-01-11T09:05:02;-1.80;99.90
47576;DHT22;33304;52.456;13.328;2024-01-11T09:07:30;-1.90;99.90
47576;DHT22;33304;52.456;13.328;2024-01-11T09:09:58;-1.90;99.90
47576;DHT22;33304;52.456;13.328;2024-01-11T09:12:25;-2.10;99.90
47576;DHT22;33304;52.456;13.328;2024-01-11T09:14:52;-2.20;99.90
47576;DHT22;33304;52.456;13.328;2024-01-11T09:17:20;-1.90;99.90
47576;DHT22;33304;52.456;13.328;2024-01-11T09:19:48;-1.80;99.90
47576;DHT22;33304;52.456;13.328;2024-01-11T09:22:15;-1.80;99.90
47576;DHT22;33304;52.456;13.328;2024-01-11T09:24:42;-1.90;99.90
47576;DHT22;33304;52.456;13.328;2024-01-11T09:27:09;-2.00;99.90
47576;DHT22;33304;52.456;13.328;2024-01-11T09:29:36;-1.90;99.90
47576;DHT22;33304;52.456;13.328;2024-01-11T09:32:04;-1.90;99.90
47576;DHT22;33304;52.456;13.328;2024-01-11T09:34:32;-2.00;99.90
47576;DHT22;33304;52.456;13.328;2024-01-11T09:36:59;-2.00;99.90
47576;DHT22;33304;52.456;13.328;2024-01-11T09:39:26;-1.90;99.90
47576;DHT22;33304;52.456;13.328;2024-01-11T09:41:58;-1.80;99.90
47576;DHT22;33304;52.456;13.328;2024-01-11T09:44:25;-1.80;99.90
47576;DHT22;33304;52.456;13.328;2024-01-11T09:46:53;-1.80;99.90
47576;DHT22;33304;52.456;13.328;2024-01-11T09:49:22;-1.60;99.90
47576;DHT22;33304;52.456;13.328;2024-01-11T09:51:51;-1.60;99.90
47576;DHT22;33304;52.456;13.328;2024-01-11T09:54:19;-1.80;99.90
47576;DHT22;33304;52.456;13.328;2024-01-11T09:56:49;-1.90;99.90
47576;DHT22;33304;52.456;13.328;2024-01-11T09:59:18;-1.80;99.90
47576;DHT22;33304;52.456;13.328;2024-01-11T10:01:48;-1.90;99.90
47576;DHT22;33304;52.456;13.328;2024-01-11T10:04:16;-2.10;99.90
47576;DHT22;33304;52.456;13.328;2024-01-11T10:06:43;-2.00;99.90
47576;DHT22;33304;52.456;13.328;2024-01-11T10:09:12;-2.10;99.90
47576;DHT22;33304;52.456;13.328;2024-01-11T10:11:39;-2.00;99.90
47576;DHT22;33304;52.456;13.328;2024-01-11T10:14:06;-1.90;99.90
47576;DHT22;33304;52.456;13.328;2024-01-11T10:16:34;-1.80;99.90
47576;DHT22;33304;52.456;13.328;2024-01-11T10:19:01;-1.70;99.90
47576;DHT22;33304;52.456;13.328;2024-01-11T10:21:29;-1.80;99.90
47576;DHT22;33304;52.456;13.328;2024-01-11T10:23:57;-1.90;99.90
47576;DHT22;33304;52.456;13.328;2024-01-11T10:26:27;-2.00;99.90
47576;DHT22;33304;52.456;13.328;2024-01-11T10:28:59;-2.10;99.90
47576;DHT22;33304;52.456;13.328;2024-01-11T10:31:28;-2.10;99.90
47576;DHT22;33304;52.456;13.328;2024-01-11T10:33:55;-2.00;99.90
47576;DHT22;33304;52.456;13.328;2024-01-11T10:36:23;-2.10;99.90
47576;DHT22;33304;52.456;13.328;2024-01-11T10:38:53;-2.10;99.90
47576;DHT22;33304;52.456;13.328;2024-01-11T10:41:22;-2.10;99.90
47576;DHT22;33304;52.456;13.328;2024-01-11T10:43:51;-2.10;99.90
47576;DHT22;33304;52.456;13.328;2024-01-11T10:46:21;-2.20;99.90
47576;DHT22;33304;52.456;13.328;2024-01-11T10:48:53;-2.10;99.90
47576;DHT22;33304;52.456;13.328;2024-01-11T10:51:23;-2.00;99.90
47576;DHT22;33304;52.456;13.328;2024-01-11T10:53:53;-1.90;99.90
47576;DHT22;33304;52.456;13.328;2024-01-11T10:56:21;-1.90;99.90
47576;DHT22;33304;52.456;13.328;2024-01-11T10:58:50;-1.90;99.90
47576;DHT22;33304;52.456;13.328;2024-01-11T11:01:19;-1.90;99.90
47576;DHT22;33304;52.456;13.328;2024-01-11T11:03:48;-1.90;99.90
47576;DHT22;33304;52.456;13.328;2024-01-11T11:06:20;-1.80;99.90
47576;DHT22;33304;52.456;13.328;2024-01-11T11:08:49;-1.60;99.90
47576;DHT22;33304;52.456;13.328;2024-01-11T11:11:17;-1.50;99.90
47576;DHT22;33304;52.456;13.328;2024-01-11T11:13:47;-1.50;99.90
47576;DHT22;33304;52.456;13.328;2024-01-11T11:16:16;-1.70;99.90
47576;DHT22;33304;52.456;13.328;2024-01-11T11:18:43;-1.60;99.90
47576;DHT22;33304;52.456;13.328;2024-01-11T11:21:12;-1.50;99.90
47576;DHT22;33304;52.456;13.328;2024-01-11T11:23:39;-1.70;99.90
47576;DHT22;33304;52.456;13.328;2024-01-11T11:26:06;-1.60;99.90
47576;DHT22;33304;52.456;13.328;2024-01-11T11:28:34;-1.60;99.90
47576;DHT22;33304;52.456;13.328;2024-01-11T11:31:02;-1.60;99.90
47576;DHT22;33304;52.456;13.328;2024-01-11T11:33:31;-1.60;99.90
47576;DHT22;33304;52.456;13.328;2024-01-11T11:35:59;-1.60;99.90
47576;DHT22;33304;52.456;13.328;2024-01-11T11:38:27;-1.60;99.90
47576;DHT22;33304;52.456;13.328;2024-01-11T11:40:56;-1.50;99.90
47576;DHT22;33304;52.456;13.328;2024-01-11T11:43:24;-1.40;99.90
47576;DHT22;33304;52.456;13.328;2024-01-11T11:45:53;-1.30;99.90
47576;DHT22;33304;52.456;13.328;2024-01-11T11:48:53;-1.40;99.90
47576;DHT22;33304;52.456;13.328;2024-01-11T11:51:21;-1.50;99.90
47576;DHT22;33304;52.456;13.328;2024-01-11T11:53:50;-1.30;99.90
47576;DHT22;33304;52.456;13.328;2024-01-11T11:56:19;-1.30;99.90
47576;DHT22;33304;52.456;13.328;2024-01-11T11:58:46;-1.30;99.90
47576;DHT22;33304;52.456;13.328;2024-01-11T12:01:14;-1.20;99.90
47576;DHT22;33304;52.456;13.328;2024-01-11T12:03:44;-1.20;99.90
47576;DHT22;33304;52.456;13.328;2024-01-11T12:06:17;-1.20;99.90
47576;DHT22;33304;52.456;13.328;2024-01-11T12:08:45;-1.30;99.90
47576;DHT22;33304;52.456;13.328;2024-01-11T12:11:17;-1.20;99.90
47576;DHT22;33304;52.456;13.328;2024-01-11T12:13:44;-1.20;99.90
47576;DHT22;33304;52.456;13.328;2024-01-11T12:16:12;-1.00;99.90
47576;DHT22;33304;52.456;13.328;2024-01-11T12:18:39;-1.10;99.90
47576;DHT22;33304;52.456;13.328;2024-01-11T12:21:07;-1.00;99.90
47576;DHT22;33304;52.456;13.328;2024-01-11T12:23:38;-0.80;99.90
47576;DHT22;33304;52.456;13.328;2024-01-11T12:26:07;-0.80;99.90
47576;DHT22;33304;52.456;13.328;2024-01-11T12:28:39;-0.70;99.90
47576;DHT22;33304;52.456;13.328;2024-01-11T12:31:06;-0.80;99.90
47576;DHT22;33304;52.456;13.328;2024-01-11T12:33:34;-1.00;99.90
47576;DHT22;33304;52.456;13.328;2024-01-11T12:36:06;-0.90;99.90
47576;DHT22;33304;52.456;13.328;2024-01-11T12:38:35;-0.90;99.90
47576;DHT22;33304;52.456;13.328;2024-01-11T12:41:02;-1.00;99.90
47576;DHT22;33304;52.456;13.328;2024-01-11T12:43:30;-0.90;99.90
47576;DHT22;33304;52.456;13.328;2024-01-11T12:45:57;-0.90;99.90
47576;DHT22;33304;52.456;13.328;2024-01-11T12:48:24;-1.00;99.90
47576;DHT22;33304;52.456;13.328;2024-01-11T12:50:51;-0.80;99.90
47576;DHT22;33304;52.456;13.328;2024-01-11T12:53:20;-0.90;99.90
47576;DHT22;33304;52.456;13.328;2024-01-11T12:55:52;-0.70;99.90
47576;DHT22;33304;52.456;13.328;2024-01-11T12:58:28;-0.60;99.90
47576;DHT22;33304;52.456;13.328;2024-01-11T13:00:55;-0.50;99.90
47576;DHT22;33304;52.456;13.328;2024-01-11T13:03:24;-0.60;99.90
47576;DHT22;33304;52.456;13.328;2024-01-11T13:05:53;-0.50;99.90
47576;DHT22;33304;52.456;13.328;2024-01-11T13:08:20;-0.40;99.90
47576;DHT22;33304;52.456;13.328;2024-01-11T13:10:49;-0.10;99.90
47576;DHT22;33304;52.456;13.328;2024-01-11T13:13:16;-0.30;99.90
47576;DHT22;33304;52.456;13.328;2024-01-11T13:15:44;-0.20;99.90
47576;DHT22;33304;52.456;13.328;2024-01-11T13:18:12;-0.40;99.90
47576;DHT22;33304;52.456;13.328;2024-01-11T13:20:39;-0.40;99.90
47576;DHT22;33304;52.456;13.328;2024-01-11T13:23:13;-0.50;99.90
47576;DHT22;33304;52.456;13.328;2024-01-11T13:25:41;-0.50;99.90
47576;DHT22;33304;52.456;13.328;2024-01-11T13:28:10;-0.40;99.90
47576;DHT22;33304;52.456;13.328;2024-01-11T13:30:37;-0.40;99.90
47576;DHT22;33304;52.456;13.328;2024-01-11T13:33:05;-0.50;99.90
47576;DHT22;33304;52.456;13.328;2024-01-11T13:35:34;-0.30;99.90
47576;DHT22;33304;52.456;13.328;2024-01-11T13:38:01;-0.30;99.90
47576;DHT22;33304;52.456;13.328;2024-01-11T13:40:28;-0.50;99.90
47576;DHT22;33304;52.456;13.328;2024-01-11T13:42:55;-0.50;99.90
47576;DHT22;33304;52.456;13.328;2024-01-11T13:45:23;-0.50;99.90
47576;DHT22;33304;52.456;13.328;2024-01-11T13:47:51;-0.60;99.90
47576;DHT22;33304;52.456;13.328;2024-01-11T13:50:20;-0.80;99.90
47576;DHT22;33304;52.456;13.328;2024-01-11T13:52:47;-0.70;99.90
47576;DHT22;33304;52.456;13.328;2024-01-11T13:55:14;-0.70;99.90
47576;DHT22;33304;52.456;13.328;2024-01-11T13:57:41;-0.60;99.90
47576;DHT22;33304;52.456;13.328;2024-01-11T14:00:10;-0.50;99.90
47576;DHT22;33304;52.456;13.328;2024-01-11T14:02:39;-0.70;99.90
47576;DHT22;33304;52.456;13.328;2024-01-11T14:05:07;-0.70;99.90
47576;DHT22;33304;52.456;13.328;2024-01-11T14:07:37;-0.80;99.90
47576;DHT22;33304;52.456;13.328;2024-01-11T14:10:06;-0.70;99.90
47576;DHT22;33304;52.456;13.328;2024-01-11T14:12:34;-0.70;99.90
47576;DHT22;33304;52.456;13.328;2024-01-11T14:15:02;-0.80;99.90
47576;DHT22;33304;52.456;13.328;2024-01-11T14:17:29;-0.80;99.90
47576;DHT22;33304;52.456;13.328;2024-01-11T14:19:58;-0.70;99.90
47576;DHT22;33304;52.456;13.328;2024-01-11T14:22:25;-0.60;99.90
47576;DHT22;33304;52.456;13.328;2024-01-11T14:24:52;-0.60;99.90
47576;DHT22;33304;52.456;13.328;2024-01-11T14:27:20;-0.50;99.90
47576;DHT22;33304;52.456;13.328;2024-01-11T14:29:47;-0.50;99.90
47576;DHT22;33304;52.456;13.328;2024-01-11T14:32:15;-0.50;99.90
47576;DHT22;33304;52.456;13.328;2024-01-11T14:34:42;-0.60;99.90
47576;DHT22;33304;52.456;13.328;2024-01-11T14:37:12;-0.60;99.90
47576;DHT22;33304;52.456;13.328;2024-01-11T14:39:39;-0.70;99.90
47576;DHT22;33304;52.456;13.328;2024-01-11T14:42:06;-0.60;99.90
47576;DHT22;33304;52.456;13.328;2024-01-11T14:44:35;-0.70;99.90
47576;DHT22;33304;52.456;13.328;2024-01-11T14:47:03;-0.60;99.90
47576;DHT22;33304;52.456;13.328;2024-01-11T14:49:30;-0.50;99.90
47576;DHT22;33304;52.456;13.328;2024-01-11T14:51:57;-0.50;99.90
47576;DHT22;33304;52.456;13.328;2024-01-11T14:54:26;-0.60;99.90
47576;DHT22;33304;52.456;13.328;2024-01-11T14:56:53;-0.60;99.90
47576;DHT22;33304;52.456;13.328;2024-01-11T14:59:20;-0.60;99.90
47576;DHT22;33304;52.456;13.328;2024-01-11T15:01:47;-0.60;99.90
47576;DHT22;33304;52.456;13.328;2024-01-11T15:04:14;-0.70;99.90
47576;DHT22;33304;52.456;13.328;2024-01-11T15:06:42;-0.60;99.90
47576;DHT22;33304;52.456;13.328;2024-01-11T15:09:09;-0.60;99.90
47576;DHT22;33304;52.456;13.328;2024-01-11T15:11:39;-0.60;99.90
47576;DHT22;33304;52.456;13.328;2024-01-11T15:14:07;-0.50;99.90
47576;DHT22;33304;52.456;13.328;2024-01-11T15:16:35;-0.60;99.90
47576;DHT22;33304;52.456;13.328;2024-01-11T15:19:02;-0.50;99.90